Airport View

Enter AWOS ICAO identifier for current METAR.

ex. KFNL

KDZJ 261215Z AUTO 00000KT M1/4SM FG OVC001 17/17 A3026 RMK AO2 T01700170

26 Jun 2019 12:21

Frequency: 119.325

Phone: 706-745-9271

Other Area AWOS: KRHP - K49A - KAJR - KJZP

TAF KTYS 261127Z 2612/2712 VRB04KT P6SM BKN250 FM270000 VRB02KT P6SM SCT250